sensor_id;sensor_type;location;lat;lon;timestamp;pressure;altitude;pressure_sealevel;temperature;humidity
54453;BME280;40363;52.270;10.546;2022-10-31T00:01:56;76553.00;;;-147.06;80.35
54453;BME280;40363;52.270;10.546;2022-10-31T00:04:23;76561.22;;;-147.06;80.35
54453;BME280;40363;52.270;10.546;2022-10-31T00:06:50;76565.34;;;-147.06;80.85
54453;BME280;40363;52.270;10.546;2022-10-31T00:09:16;76575.63;;;-147.06;80.92
54453;BME280;40363;52.270;10.546;2022-10-31T00:11:44;76579.72;;;-147.06;80.62
54453;BME280;40363;52.270;10.546;2022-10-31T00:14:11;76583.84;;;-147.06;81.46
54453;BME280;40363;52.270;10.546;2022-10-31T00:16:37;76587.94;;;-147.06;81.07
54453;BME280;40363;52.270;10.546;2022-10-31T00:19:06;76577.69;;;-147.06;81.17
54453;BME280;40363;52.270;10.546;2022-10-31T00:21:33;76571.50;;;-147.06;81.09
54453;BME280;40363;52.270;10.546;2022-10-31T00:24:00;76596.19;;;-147.06;81.86
54453;BME280;40363;52.270;10.546;2022-10-31T00:26:27;76604.41;;;-147.06;82.31
54453;BME280;40363;52.270;10.546;2022-10-31T00:28:56;76608.50;;;-147.06;82.60
54453;BME280;40363;52.270;10.546;2022-10-31T00:31:23;76639.34;;;-147.06;82.92
54453;BME280;40363;52.270;10.546;2022-10-31T00:33:49;76635.22;;;-147.06;83.04
54453;BME280;40363;52.270;10.546;2022-10-31T00:36:18;76649.63;;;-147.06;83.53
54453;BME280;40363;52.270;10.546;2022-10-31T00:38:46;76649.63;;;-147.06;83.47
54453;BME280;40363;52.270;10.546;2022-10-31T00:41:14;76653.72;;;-147.06;83.36
54453;BME280;40363;52.270;10.546;2022-10-31T00:43:41;76661.94;;;-147.06;83.25
54453;BME280;40363;52.270;10.546;2022-10-31T00:46:09;76668.13;;;-147.06;83.52
54453;BME280;40363;52.270;10.546;2022-10-31T00:48:35;76668.13;;;-147.06;83.86
54453;BME280;40363;52.270;10.546;2022-10-31T00:51:02;76668.13;;;-147.06;83.96
54453;BME280;40363;52.270;10.546;2022-10-31T00:53:29;76661.94;;;-147.06;83.23
54453;BME280;40363;52.270;10.546;2022-10-31T00:55:56;76653.72;;;-147.06;82.82
54453;BME280;40363;52.270;10.546;2022-10-31T00:58:22;76651.66;;;-147.06;82.67
54453;BME280;40363;52.270;10.546;2022-10-31T01:00:49;76645.50;;;-147.06;82.74
54453;BME280;40363;52.270;10.546;2022-10-31T01:03:22;76645.50;;;-147.06;82.55
54453;BME280;40363;52.270;10.546;2022-10-31T01:05:59;76641.41;;;-147.06;82.54
54453;BME280;40363;52.270;10.546;2022-10-31T01:08:26;76645.50;;;-147.06;82.44
54453;BME280;40363;52.270;10.546;2022-10-31T01:11:05;76637.28;;;-147.06;82.16
54453;BME280;40363;52.270;10.546;2022-10-31T01:13:32;76643.44;;;-147.06;82.04
54453;BME280;40363;52.270;10.546;2022-10-31T01:16:00;76641.41;;;-147.06;81.81
54453;BME280;40363;52.270;10.546;2022-10-31T01:18:28;76629.06;;;-147.06;81.83
54453;BME280;40363;52.270;10.546;2022-10-31T01:21:00;76629.06;;;-147.06;81.48
54453;BME280;40363;52.270;10.546;2022-10-31T01:23:28;76631.13;;;-147.06;81.36
54453;BME280;40363;52.270;10.546;2022-10-31T01:26:03;76627.00;;;-147.06;81.29
54453;BME280;40363;52.270;10.546;2022-10-31T01:28:30;76624.94;;;-147.06;80.91
54453;BME280;40363;52.270;10.546;2022-10-31T01:31:00;76624.94;;;-147.06;81.11
54453;BME280;40363;52.270;10.546;2022-10-31T01:33:26;76622.91;;;-147.06;81.45
54453;BME280;40363;52.270;10.546;2022-10-31T01:35:54;76629.06;;;-147.06;80.79
54453;BME280;40363;52.270;10.546;2022-10-31T01:38:21;76631.13;;;-147.06;80.58
54453;BME280;40363;52.270;10.546;2022-10-31T01:40:48;76620.84;;;-147.06;80.28
54453;BME280;40363;52.270;10.546;2022-10-31T01:43:15;76616.72;;;-147.06;79.92
54453;BME280;40363;52.270;10.546;2022-10-31T01:45:44;76622.91;;;-147.06;79.49
54453;BME280;40363;52.270;10.546;2022-10-31T01:48:15;76631.13;;;-147.06;79.59
54453;BME280;40363;52.270;10.546;2022-10-31T01:50:43;76620.84;;;-147.06;79.40
54453;BME280;40363;52.270;10.546;2022-10-31T01:53:15;76620.84;;;-147.06;79.39
54453;BME280;40363;52.270;10.546;2022-10-31T01:55:44;76618.78;;;-147.06;79.23
54453;BME280;40363;52.270;10.546;2022-10-31T01:58:14;76620.84;;;-147.06;79.18
54453;BME280;40363;52.270;10.546;2022-10-31T02:00:44;76610.56;;;-147.06;78.71
54453;BME280;40363;52.270;10.546;2022-10-31T02:03:12;76616.72;;;-147.06;78.92
54453;BME280;40363;52.270;10.546;2022-10-31T02:05:39;76618.78;;;-147.06;78.57
54453;BME280;40363;52.270;10.546;2022-10-31T02:08:09;76618.78;;;-147.06;78.30
54453;BME280;40363;52.270;10.546;2022-10-31T02:10:40;76616.72;;;-147.06;78.52
54453;BME280;40363;52.270;10.546;2022-10-31T02:13:09;76612.63;;;-147.06;78.18
54453;BME280;40363;52.270;10.546;2022-10-31T02:15:37;76612.63;;;-147.06;78.11
54453;BME280;40363;52.270;10.546;2022-10-31T02:18:05;76612.63;;;-147.06;77.88
54453;BME280;40363;52.270;10.546;2022-10-31T02:20:37;76608.50;;;-147.06;77.54
54453;BME280;40363;52.270;10.546;2022-10-31T02:23:29;76608.50;;;-147.06;77.46
54453;BME280;40363;52.270;10.546;2022-10-31T02:26:18;76612.63;;;-147.06;77.14
54453;BME280;40363;52.270;10.546;2022-10-31T02:29:05;76614.69;;;-147.06;77.19
54453;BME280;40363;52.270;10.546;2022-10-31T02:31:44;76612.63;;;-147.06;77.21
54453;BME280;40363;52.270;10.546;2022-10-31T02:34:18;76612.63;;;-147.06;76.86
54453;BME280;40363;52.270;10.546;2022-10-31T02:36:52;76612.63;;;-147.06;77.04
54453;BME280;40363;52.270;10.546;2022-10-31T02:39:23;76612.63;;;-147.06;76.85
54453;BME280;40363;52.270;10.546;2022-10-31T02:41:59;76620.84;;;-147.06;77.31
54453;BME280;40363;52.270;10.546;2022-10-31T02:44:30;76620.84;;;-147.06;77.19
54453;BME280;40363;52.270;10.546;2022-10-31T02:47:05;76614.69;;;-147.06;77.13
54453;BME280;40363;52.270;10.546;2022-10-31T02:49:37;76614.69;;;-147.06;77.25
54453;BME280;40363;52.270;10.546;2022-10-31T02:52:13;76606.44;;;-147.06;77.05
54453;BME280;40363;52.270;10.546;2022-10-31T02:54:41;76608.50;;;-147.06;77.14
54453;BME280;40363;52.270;10.546;2022-10-31T02:57:08;76610.56;;;-147.06;76.96
54453;BME280;40363;52.270;10.546;2022-10-31T02:59:37;76600.28;;;-147.06;76.98
54453;BME280;40363;52.270;10.546;2022-10-31T03:02:17;76587.94;;;-147.06;76.70
54453;BME280;40363;52.270;10.546;2022-10-31T03:04:59;76583.84;;;-147.06;76.50
54453;BME280;40363;52.270;10.546;2022-10-31T03:07:37;76579.72;;;-147.06;76.44
54453;BME280;40363;52.270;10.546;2022-10-31T03:10:16;76575.63;;;-147.06;76.56
54453;BME280;40363;52.270;10.546;2022-10-31T03:12:45;76571.50;;;-147.06;76.67
54453;BME280;40363;52.270;10.546;2022-10-31T03:15:19;76573.56;;;-147.06;76.88
54453;BME280;40363;52.270;10.546;2022-10-31T03:17:54;76571.50;;;-147.06;77.06
54453;BME280;40363;52.270;10.546;2022-10-31T03:20:27;76573.56;;;-147.06;77.21
54453;BME280;40363;52.270;10.546;2022-10-31T03:22:55;76569.44;;;-147.06;77.16
54453;BME280;40363;52.270;10.546;2022-10-31T03:25:23;76567.41;;;-147.06;77.40
54453;BME280;40363;52.270;10.546;2022-10-31T03:27:51;76567.41;;;-147.06;78.18
54453;BME280;40363;52.270;10.546;2022-10-31T03:30:18;76565.34;;;-147.06;78.00
54453;BME280;40363;52.270;10.546;2022-10-31T03:32:48;76563.28;;;-147.06;78.39
54453;BME280;40363;52.270;10.546;2022-10-31T03:35:19;76571.50;;;-147.06;78.71
54453;BME280;40363;52.270;10.546;2022-10-31T03:37:49;76577.69;;;-147.06;79.00
54453;BME280;40363;52.270;10.546;2022-10-31T03:40:19;76575.63;;;-147.06;79.51
54453;BME280;40363;52.270;10.546;2022-10-31T03:42:53;76575.63;;;-147.06;79.58
54453;BME280;40363;52.270;10.546;2022-10-31T03:45:23;76581.78;;;-147.06;80.40
54453;BME280;40363;52.270;10.546;2022-10-31T03:47:52;76594.13;;;-147.06;80.61
54453;BME280;40363;52.270;10.546;2022-10-31T03:50:21;76596.19;;;-147.06;80.68
54453;BME280;40363;52.270;10.546;2022-10-31T03:52:55;76600.28;;;-147.06;81.28
54453;BME280;40363;52.270;10.546;2022-10-31T03:55:27;76610.56;;;-147.06;81.61
54453;BME280;40363;52.270;10.546;2022-10-31T03:57:58;76618.78;;;-147.06;81.58
54453;BME280;40363;52.270;10.546;2022-10-31T04:00:26;76627.00;;;-147.06;82.02
54453;BME280;40363;52.270;10.546;2022-10-31T04:02:55;76627.00;;;-147.06;82.13
54453;BME280;40363;52.270;10.546;2022-10-31T04:05:27;76633.16;;;-147.06;82.32
54453;BME280;40363;52.270;10.546;2022-10-31T04:07:57;76637.28;;;-147.06;82.67
54453;BME280;40363;52.270;10.546;2022-10-31T04:10:26;76641.41;;;-147.06;82.80
54453;BME280;40363;52.270;10.546;2022-10-31T04:12:57;76653.72;;;-147.06;83.05
54453;BME280;40363;52.270;10.546;2022-10-31T04:15:26;76649.63;;;-147.06;83.18
54453;BME280;40363;52.270;10.546;2022-10-31T04:17:55;76649.63;;;-147.06;83.13
54453;BME280;40363;52.270;10.546;2022-10-31T04:20:32;76653.72;;;-147.06;83.57
54453;BME280;40363;52.270;10.546;2022-10-31T04:22:59;76653.72;;;-147.06;83.57
54453;BME280;40363;52.270;10.546;2022-10-31T04:25:26;76666.06;;;-147.06;83.71
54453;BME280;40363;52.270;10.546;2022-10-31T04:27:52;76661.94;;;-147.06;83.83
54453;BME280;40363;52.270;10.546;2022-10-31T04:30:19;76666.06;;;-147.06;84.04
54453;BME280;40363;52.270;10.546;2022-10-31T04:32:45;76670.16;;;-147.06;84.36
54453;BME280;40363;52.270;10.546;2022-10-31T04:35:12;76676.34;;;-147.06;84.76
54453;BME280;40363;52.270;10.546;2022-10-31T04:37:40;76672.22;;;-147.06;84.65
54453;BME280;40363;52.270;10.546;2022-10-31T04:40:08;76676.34;;;-147.06;85.25
54453;BME280;40363;52.270;10.546;2022-10-31T04:42:34;76682.50;;;-147.06;85.21
54453;BME280;40363;52.270;10.546;2022-10-31T04:45:01;76686.63;;;-147.06;85.58
54453;BME280;40363;52.270;10.546;2022-10-31T04:47:30;76690.72;;;-147.06;85.57
54453;BME280;40363;52.270;10.546;2022-10-31T04:49:57;76696.88;;;-147.06;85.80
54453;BME280;40363;52.270;10.546;2022-10-31T04:52:23;76690.72;;;-147.06;86.03
54453;BME280;40363;52.270;10.546;2022-10-31T04:54:51;76694.84;;;-147.06;86.31
54453;BME280;40363;52.270;10.546;2022-10-31T04:57:18;76698.94;;;-147.06;86.26
54453;BME280;40363;52.270;10.546;2022-10-31T04:59:44;76696.88;;;-147.06;86.30
54453;BME280;40363;52.270;10.546;2022-10-31T05:02:11;76696.88;;;-147.06;86.73
54453;BME280;40363;52.270;10.546;2022-10-31T05:04:38;76698.94;;;-147.06;86.93
54453;BME280;40363;52.270;10.546;2022-10-31T05:07:04;76705.13;;;-147.06;87.49
54453;BME280;40363;52.270;10.546;2022-10-31T05:09:31;76703.06;;;-147.06;87.75
54453;BME280;40363;52.270;10.546;2022-10-31T05:11:59;76705.13;;;-147.06;87.93
54453;BME280;40363;52.270;10.546;2022-10-31T05:14:25;76715.38;;;-147.06;88.25
54453;BME280;40363;52.270;10.546;2022-10-31T05:16:52;76715.38;;;-147.06;88.49
54453;BME280;40363;52.270;10.546;2022-10-31T05:19:21;76715.38;;;-147.06;89.03
54453;BME280;40363;52.270;10.546;2022-10-31T05:21:48;76719.50;;;-147.06;89.02
54453;BME280;40363;52.270;10.546;2022-10-31T05:24:15;76717.44;;;-147.06;89.46
54453;BME280;40363;52.270;10.546;2022-10-31T05:26:41;76725.66;;;-147.06;89.69
54453;BME280;40363;52.270;10.546;2022-10-31T05:29:09;76723.63;;;-147.06;89.92
54453;BME280;40363;52.270;10.546;2022-10-31T05:31:36;76740.06;;;-147.06;90.15
54453;BME280;40363;52.270;10.546;2022-10-31T05:34:02;76733.88;;;-147.06;90.18
54453;BME280;40363;52.270;10.546;2022-10-31T05:36:29;76740.06;;;-147.06;90.22
54453;BME280;40363;52.270;10.546;2022-10-31T05:38:56;76738.00;;;-147.06;90.49
54453;BME280;40363;52.270;10.546;2022-10-31T05:41:22;76740.06;;;-147.06;90.56
54453;BME280;40363;52.270;10.546;2022-10-31T05:43:49;76740.06;;;-147.06;90.34
54453;BME280;40363;52.270;10.546;2022-10-31T05:46:17;76744.16;;;-147.06;90.92
54453;BME280;40363;52.270;10.546;2022-10-31T05:48:43;76756.50;;;-147.06;91.17
54453;BME280;40363;52.270;10.546;2022-10-31T05:51:10;76764.72;;;-147.06;91.35
54453;BME280;40363;52.270;10.546;2022-10-31T05:53:38;76758.56;;;-147.06;91.58
54453;BME280;40363;52.270;10.546;2022-10-31T05:56:05;76756.50;;;-147.06;91.30
54453;BME280;40363;52.270;10.546;2022-10-31T05:58:31;76760.63;;;-147.06;91.58
54453;BME280;40363;52.270;10.546;2022-10-31T06:01:01;76768.84;;;-147.06;91.73
54453;BME280;40363;52.270;10.546;2022-10-31T06:03:29;76772.94;;;-147.06;91.84
54453;BME280;40363;52.270;10.546;2022-10-31T06:06:01;76777.06;;;-147.06;91.84
54453;BME280;40363;52.270;10.546;2022-10-31T06:08:28;76777.06;;;-147.06;91.56
54453;BME280;40363;52.270;10.546;2022-10-31T06:10:55;76791.44;;;-147.06;92.28
54453;BME280;40363;52.270;10.546;2022-10-31T06:13:21;76807.88;;;-147.06;92.78
54453;BME280;40363;52.270;10.546;2022-10-31T06:15:48;76805.84;;;-147.06;92.71
54453;BME280;40363;52.270;10.546;2022-10-31T06:18:14;76797.63;;;-147.06;92.43
54453;BME280;40363;52.270;10.546;2022-10-31T06:20:42;76805.84;;;-147.06;92.50
54453;BME280;40363;52.270;10.546;2022-10-31T06:23:09;76838.72;;;-147.06;93.49
54453;BME280;40363;52.270;10.546;2022-10-31T06:25:36;76853.13;;;-147.06;94.21
54453;BME280;40363;52.270;10.546;2022-10-31T06:28:02;76871.63;;;-147.06;94.83
54453;BME280;40363;52.270;10.546;2022-10-31T06:30:29;76875.72;;;-147.06;95.02
54453;BME280;40363;52.270;10.546;2022-10-31T06:33:02;76865.44;;;-147.06;94.62
54453;BME280;40363;52.270;10.546;2022-10-31T06:35:28;76867.50;;;-147.06;94.46
54453;BME280;40363;52.270;10.546;2022-10-31T06:37:56;76867.50;;;-147.06;94.33
54453;BME280;40363;52.270;10.546;2022-10-31T06:40:23;76877.78;;;-147.06;94.49
54453;BME280;40363;52.270;10.546;2022-10-31T06:42:56;76894.22;;;-147.06;94.79
54453;BME280;40363;52.270;10.546;2022-10-31T06:45:23;76900.38;;;-147.06;95.36
54453;BME280;40363;52.270;10.546;2022-10-31T06:47:50;76902.44;;;-147.06;94.96
54453;BME280;40363;52.270;10.546;2022-10-31T06:50:20;76883.94;;;-147.06;94.49
54453;BME280;40363;52.270;10.546;2022-10-31T06:52:50;76873.66;;;-147.06;93.97
54453;BME280;40363;52.270;10.546;2022-10-31T06:55:18;76877.78;;;-147.06;94.05
54453;BME280;40363;52.270;10.546;2022-10-31T06:57:49;76879.84;;;-147.06;94.62
54453;BME280;40363;52.270;10.546;2022-10-31T07:00:16;76867.50;;;-147.06;94.04
54453;BME280;40363;52.270;10.546;2022-10-31T07:02:43;76875.72;;;-147.06;94.24
54453;BME280;40363;52.270;10.546;2022-10-31T07:05:12;76867.50;;;-147.06;93.95
54453;BME280;40363;52.270;10.546;2022-10-31T07:07:38;76849.00;;;-147.06;93.69
54453;BME280;40363;52.270;10.546;2022-10-31T07:10:05;76838.72;;;-147.06;92.62
54453;BME280;40363;52.270;10.546;2022-10-31T07:12:33;76830.50;;;-147.06;92.31
54453;BME280;40363;52.270;10.546;2022-10-31T07:15:00;76822.28;;;-147.06;91.95
54453;BME280;40363;52.270;10.546;2022-10-31T07:17:26;76812.00;;;-147.06;92.05
54453;BME280;40363;52.270;10.546;2022-10-31T07:19:53;76816.13;;;-147.06;92.03
54453;BME280;40363;52.270;10.546;2022-10-31T07:22:22;76812.00;;;-147.06;91.64
54453;BME280;40363;52.270;10.546;2022-10-31T07:24:50;76809.94;;;-147.06;92.04
54453;BME280;40363;52.270;10.546;2022-10-31T07:27:20;76799.66;;;-147.06;91.52
54453;BME280;40363;52.270;10.546;2022-10-31T07:29:48;76775.00;;;-147.06;90.86
54453;BME280;40363;52.270;10.546;2022-10-31T07:32:18;76756.50;;;-147.06;89.86
54453;BME280;40363;52.270;10.546;2022-10-31T07:34:46;76756.50;;;-147.06;89.85
54453;BME280;40363;52.270;10.546;2022-10-31T07:37:18;76744.16;;;-147.06;89.76
54453;BME280;40363;52.270;10.546;2022-10-31T07:39:45;76740.06;;;-147.06;89.29
54453;BME280;40363;52.270;10.546;2022-10-31T07:42:11;76707.16;;;-147.06;88.87
54453;BME280;40363;52.270;10.546;2022-10-31T07:44:41;76692.78;;;-147.06;87.99
54453;BME280;40363;52.270;10.546;2022-10-31T07:47:12;76674.28;;;-147.06;87.18
54453;BME280;40363;52.270;10.546;2022-10-31T07:50:38;76670.16;;;-147.06;86.80
54453;BME280;40363;52.270;10.546;2022-10-31T07:53:05;76661.94;;;-147.06;86.73
54453;BME280;40363;52.270;10.546;2022-10-31T07:55:38;76651.66;;;-147.06;86.17
54453;BME280;40363;52.270;10.546;2022-10-31T07:58:16;76637.28;;;-147.06;85.43
54453;BME280;40363;52.270;10.546;2022-10-31T08:00:47;76639.34;;;-147.06;85.70
54453;BME280;40363;52.270;10.546;2022-10-31T08:03:30;76633.16;;;-147.06;85.58
54453;BME280;40363;52.270;10.546;2022-10-31T08:05:59;76645.50;;;-147.06;85.86
54453;BME280;40363;52.270;10.546;2022-10-31T08:08:27;76643.44;;;-147.06;85.78
54453;BME280;40363;52.270;10.546;2022-10-31T08:11:08;76637.28;;;-147.06;85.67
54453;BME280;40363;52.270;10.546;2022-10-31T08:13:41;76666.06;;;-147.06;86.60
54453;BME280;40363;52.270;10.546;2022-10-31T08:16:10;76637.28;;;-147.06;85.94
54453;BME280;40363;52.270;10.546;2022-10-31T08:18:49;76631.13;;;-147.06;85.93
54453;BME280;40363;52.270;10.546;2022-10-31T08:21:16;76629.06;;;-147.06;85.75
54453;BME280;40363;52.270;10.546;2022-10-31T08:23:45;76629.06;;;-147.06;85.82
54453;BME280;40363;52.270;10.546;2022-10-31T08:26:14;76624.94;;;-147.06;85.91
54453;BME280;40363;52.270;10.546;2022-10-31T08:28:41;76627.00;;;-147.06;85.66
54453;BME280;40363;52.270;10.546;2022-10-31T08:31:08;76624.94;;;-147.06;85.36
54453;BME280;40363;52.270;10.546;2022-10-31T08:33:54;76616.72;;;-147.06;85.02
54453;BME280;40363;52.270;10.546;2022-10-31T08:36:21;76608.50;;;-147.06;85.01
54453;BME280;40363;52.270;10.546;2022-10-31T08:38:48;76608.50;;;-147.06;84.44
54453;BME280;40363;52.270;10.546;2022-10-31T08:41:15;76604.41;;;-147.06;84.47
54453;BME280;40363;52.270;10.546;2022-10-31T08:43:46;76583.84;;;-147.06;84.16
54453;BME280;40363;52.270;10.546;2022-10-31T08:49:07;76555.06;;;-147.06;83.30
54453;BME280;40363;52.270;10.546;2022-10-31T08:51:35;76542.72;;;-147.06;82.95
54453;BME280;40363;52.270;10.546;2022-10-31T08:54:02;76516.00;;;-147.06;82.54
54453;BME280;40363;52.270;10.546;2022-10-31T08:56:31;76497.50;;;-147.06;82.01
54453;BME280;40363;52.270;10.546;2022-10-31T08:59:04;76497.50;;;-147.06;81.60
54453;BME280;40363;52.270;10.546;2022-10-31T09:01:34;76509.84;;;-147.06;82.03
54453;BME280;40363;52.270;10.546;2022-10-31T09:04:14;76509.84;;;-147.06;82.59
54453;BME280;40363;52.270;10.546;2022-10-31T09:06:50;76497.50;;;-147.06;82.40
54453;BME280;40363;52.270;10.546;2022-10-31T09:09:23;76444.06;;;-147.06;80.89
54453;BME280;40363;52.270;10.546;2022-10-31T09:11:59;76407.06;;;-147.06;79.31
54453;BME280;40363;52.270;10.546;2022-10-31T09:14:35;76402.97;;;-147.06;78.50
54453;BME280;40363;52.270;10.546;2022-10-31T09:17:12;76413.25;;;-147.06;78.65
54453;BME280;40363;52.270;10.546;2022-10-31T09:22:31;76405.03;;;-147.06;78.26
54453;BME280;40363;52.270;10.546;2022-10-31T09:25:08;76442.03;;;-147.06;78.47
54453;BME280;40363;52.270;10.546;2022-10-31T09:28:00;76460.53;;;-147.06;79.78
54453;BME280;40363;52.270;10.546;2022-10-31T09:30:34;76425.56;;;-147.06;79.39
54453;BME280;40363;52.270;10.546;2022-10-31T09:33:06;76431.75;;;-147.06;78.98
54453;BME280;40363;52.270;10.546;2022-10-31T09:35:39;76415.31;;;-147.06;78.85
54453;BME280;40363;52.270;10.546;2022-10-31T09:38:13;76384.47;;;-147.06;77.78
54453;BME280;40363;52.270;10.546;2022-10-31T09:40:52;76374.19;;;-147.06;76.84
54453;BME280;40363;52.270;10.546;2022-10-31T09:43:46;76361.84;;;-147.06;76.29
54453;BME280;40363;52.270;10.546;2022-10-31T09:46:29;76337.19;;;-147.06;75.69
54453;BME280;40363;52.270;10.546;2022-10-31T09:49:21;76304.31;;;-147.06;74.41
54453;BME280;40363;52.270;10.546;2022-10-31T09:52:02;76320.75;;;-147.06;74.84
54453;BME280;40363;52.270;10.546;2022-10-31T09:54:44;76287.88;;;-147.06;73.79
54453;BME280;40363;52.270;10.546;2022-10-31T09:57:27;76302.25;;;-147.06;73.65
54453;BME280;40363;52.270;10.546;2022-10-31T10:00:07;76281.72;;;-147.06;73.47
54453;BME280;40363;52.270;10.546;2022-10-31T10:03:05;76252.94;;;-147.06;72.46
54453;BME280;40363;52.270;10.546;2022-10-31T10:05:54;76250.88;;;-147.06;72.36
54453;BME280;40363;52.270;10.546;2022-10-31T10:08:32;76269.38;;;-147.06;72.70
54453;BME280;40363;52.270;10.546;2022-10-31T10:11:19;76347.47;;;-147.06;74.96
54453;BME280;40363;52.270;10.546;2022-10-31T10:13:55;76304.31;;;-147.06;73.65
54453;BME280;40363;52.270;10.546;2022-10-31T10:16:35;76273.47;;;-147.06;73.02
54453;BME280;40363;52.270;10.546;2022-10-31T10:19:15;76248.81;;;-147.06;72.40
54453;BME280;40363;52.270;10.546;2022-10-31T10:21:53;76222.09;;;-147.06;71.73
54453;BME280;40363;52.270;10.546;2022-10-31T10:24:38;76215.94;;;-147.06;71.51
54453;BME280;40363;52.270;10.546;2022-10-31T10:27:16;76183.06;;;-147.06;70.52
54453;BME280;40363;52.270;10.546;2022-10-31T10:29:54;76168.66;;;-147.06;69.72
54453;BME280;40363;52.270;10.546;2022-10-31T10:32:27;76294.03;;;-147.06;73.65
54453;BME280;40363;52.270;10.546;2022-10-31T10:35:16;76306.38;;;-147.06;74.89
54453;BME280;40363;52.270;10.546;2022-10-31T10:38:01;76230.31;;;-147.06;72.23
54453;BME280;40363;52.270;10.546;2022-10-31T10:40:33;76201.56;;;-147.06;71.10
54453;BME280;40363;52.270;10.546;2022-10-31T10:43:20;76197.44;;;-147.06;71.16
54453;BME280;40363;52.270;10.546;2022-10-31T10:45:55;76222.09;;;-147.06;71.80
54453;BME280;40363;52.270;10.546;2022-10-31T10:48:43;76185.09;;;-147.06;71.13
54453;BME280;40363;52.270;10.546;2022-10-31T10:51:21;76228.28;;;-147.06;71.67
54453;BME280;40363;52.270;10.546;2022-10-31T10:53:59;76234.44;;;-147.06;71.94
54453;BME280;40363;52.270;10.546;2022-10-31T10:56:49;76271.44;;;-147.06;73.56
54453;BME280;40363;52.270;10.546;2022-10-31T10:59:21;76283.75;;;-147.06;74.06
54453;BME280;40363;52.270;10.546;2022-10-31T11:01:48;76263.22;;;-147.06;73.65
54453;BME280;40363;52.270;10.546;2022-10-31T11:04:28;76255.00;;;-147.06;72.68
54453;BME280;40363;52.270;10.546;2022-10-31T11:07:00;76252.94;;;-147.06;73.52
54453;BME280;40363;52.270;10.546;2022-10-31T11:09:27;76287.88;;;-147.06;73.83
54453;BME280;40363;52.270;10.546;2022-10-31T11:11:55;76273.47;;;-147.06;73.17
54453;BME280;40363;52.270;10.546;2022-10-31T11:14:23;76263.22;;;-147.06;73.75
54453;BME280;40363;52.270;10.546;2022-10-31T11:16:53;76248.81;;;-147.06;73.28
54453;BME280;40363;52.270;10.546;2022-10-31T11:19:22;76236.50;;;-147.06;71.83
54453;BME280;40363;52.270;10.546;2022-10-31T11:21:49;76271.44;;;-147.06;72.32
54453;BME280;40363;52.270;10.546;2022-10-31T11:24:17;76279.66;;;-147.06;73.26
54453;BME280;40363;52.270;10.546;2022-10-31T11:26:46;76246.75;;;-147.06;72.87
54453;BME280;40363;52.270;10.546;2022-10-31T11:29:16;76302.25;;;-147.06;74.63
54453;BME280;40363;52.270;10.546;2022-10-31T11:31:47;76267.31;;;-147.06;74.33
54453;BME280;40363;52.270;10.546;2022-10-31T11:34:26;76236.50;;;-147.06;73.45
54453;BME280;40363;52.270;10.546;2022-10-31T11:36:58;76213.88;;;-147.06;73.73
54453;BME280;40363;52.270;10.546;2022-10-31T11:39:28;76250.88;;;-147.06;74.45
54453;BME280;40363;52.270;10.546;2022-10-31T11:42:01;76213.88;;;-147.06;73.75
54453;BME280;40363;52.270;10.546;2022-10-31T11:44:31;76181.00;;;-147.06;72.76
54453;BME280;40363;52.270;10.546;2022-10-31T11:47:00;76230.31;;;-147.06;74.68
54453;BME280;40363;52.270;10.546;2022-10-31T11:49:30;76213.88;;;-147.06;74.29
54453;BME280;40363;52.270;10.546;2022-10-31T11:51:59;76222.09;;;-147.06;74.89
54453;BME280;40363;52.270;10.546;2022-10-31T11:54:30;76178.94;;;-147.06;73.65
54453;BME280;40363;52.270;10.546;2022-10-31T11:56:59;76197.44;;;-147.06;73.90
54453;BME280;40363;52.270;10.546;2022-10-31T11:59:27;76168.66;;;-147.06;73.35
54453;BME280;40363;52.270;10.546;2022-10-31T12:01:58;76160.44;;;-147.06;73.91
54453;BME280;40363;52.270;10.546;2022-10-31T12:04:37;76185.09;;;-147.06;72.99
54453;BME280;40363;52.270;10.546;2022-10-31T12:07:06;76158.38;;;-147.06;72.21
54453;BME280;40363;52.270;10.546;2022-10-31T12:09:34;76148.13;;;-147.06;72.47
54453;BME280;40363;52.270;10.546;2022-10-31T12:12:32;76150.16;;;-147.06;72.91
54453;BME280;40363;52.270;10.546;2022-10-31T12:15:15;76139.91;;;-147.06;73.40
54453;BME280;40363;52.270;10.546;2022-10-31T12:17:51;76152.22;;;-147.06;73.63
54453;BME280;40363;52.270;10.546;2022-10-31T12:20:25;76154.28;;;-147.06;73.79
54453;BME280;40363;52.270;10.546;2022-10-31T12:23:01;76139.91;;;-147.06;73.37
54453;BME280;40363;52.270;10.546;2022-10-31T12:25:36;76154.28;;;-147.06;73.99
54453;BME280;40363;52.270;10.546;2022-10-31T12:31:14;76174.84;;;-147.06;75.38
54453;BME280;40363;52.270;10.546;2022-10-31T12:33:54;76164.56;;;-147.06;75.24
54453;BME280;40363;52.270;10.546;2022-10-31T12:36:40;76162.50;;;-147.06;74.82
54453;BME280;40363;52.270;10.546;2022-10-31T12:39:22;76176.88;;;-147.06;74.81
54453;BME280;40363;52.270;10.546;2022-10-31T12:41:52;76156.34;;;-147.06;74.27
54453;BME280;40363;52.270;10.546;2022-10-31T12:44:35;76164.56;;;-147.06;74.63
54453;BME280;40363;52.270;10.546;2022-10-31T12:47:34;76158.38;;;-147.06;74.27
54453;BME280;40363;52.270;10.546;2022-10-31T12:50:16;76152.22;;;-147.06;73.25
54453;BME280;40363;52.270;10.546;2022-10-31T12:52:55;76146.06;;;-147.06;72.70
54453;BME280;40363;52.270;10.546;2022-10-31T12:55:41;76131.69;;;-147.06;72.48
54453;BME280;40363;52.270;10.546;2022-10-31T12:58:17;76123.44;;;-147.06;71.61
54453;BME280;40363;52.270;10.546;2022-10-31T13:00:50;76119.34;;;-147.06;68.61
54453;BME280;40363;52.270;10.546;2022-10-31T13:03:25;76123.44;;;-147.06;67.99